createdAt,value
2023-08-26T00:01:38.633Z,6.38
2023-08-26T00:04:05.710Z,6.03
2023-08-26T00:06:32.445Z,6.13
2023-08-26T00:08:59.138Z,6.72
2023-08-26T00:11:25.857Z,7.00
2023-08-26T00:13:52.576Z,7.50
2023-08-26T00:16:19.278Z,6.78
2023-08-26T00:18:48.380Z,6.63
2023-08-26T00:21:16.070Z,7.32
2023-08-26T00:23:42.914Z,7.15
2023-08-26T00:26:12.401Z,7.15
2023-08-26T00:28:39.125Z,6.65
2023-08-26T00:31:05.816Z,6.90
2023-08-26T00:33:32.540Z,5.90
2023-08-26T00:35:59.191Z,6.88
2023-08-26T00:38:26.089Z,6.93
2023-08-26T00:40:52.824Z,7.28
2023-08-26T00:43:19.446Z,6.57
2023-08-26T00:45:47.585Z,6.28
2023-08-26T00:48:15.542Z,6.35
2023-08-26T00:50:44.898Z,7.03
2023-08-26T00:53:13.563Z,6.88
2023-08-26T00:55:41.680Z,6.57
2023-08-26T00:58:08.861Z,7.28
2023-08-26T01:00:37.552Z,6.57
2023-08-26T01:03:05.289Z,6.65
2023-08-26T01:05:32.131Z,6.85
2023-08-26T01:08:01.088Z,6.68
2023-08-26T01:11:05.637Z,7.72
2023-08-26T01:14:03.463Z,7.18
2023-08-26T01:16:34.549Z,6.57
2023-08-26T01:19:03.450Z,6.82
2023-08-26T01:21:37.392Z,6.78
2023-08-26T01:24:05.448Z,6.78
2023-08-26T01:26:32.133Z,7.18
2023-08-26T01:28:59.067Z,6.93
2023-08-26T01:31:29.530Z,6.93
2023-08-26T01:34:11.571Z,7.20
2023-08-26T01:39:09.275Z,7.22
2023-08-26T01:41:37.019Z,7.03
2023-08-26T01:44:03.955Z,7.32
2023-08-26T01:46:40.377Z,6.80
2023-08-26T01:49:07.231Z,6.78
2023-08-26T01:51:34.223Z,6.60
2023-08-26T01:54:00.920Z,7.10
2023-08-26T01:56:27.666Z,6.80
2023-08-26T01:58:54.232Z,6.68
2023-08-26T02:01:21.091Z,6.25
2023-08-26T02:03:47.908Z,6.68
2023-08-26T02:06:14.595Z,7.22
2023-08-26T02:08:41.209Z,7.30
2023-08-26T02:11:08.071Z,7.70
2023-08-26T02:13:34.694Z,8.13
2023-08-26T02:16:01.377Z,7.82
2023-08-26T02:18:28.061Z,8.48
2023-08-26T02:20:54.770Z,7.57
2023-08-26T02:23:21.438Z,8.15
2023-08-26T02:25:48.102Z,7.78
2023-08-26T02:28:14.742Z,8.18
2023-08-26T02:30:41.533Z,8.50
2023-08-26T02:33:10.202Z,8.25
2023-08-26T02:35:37.039Z,8.25
2023-08-26T02:38:03.956Z,8.07
2023-08-26T02:40:30.634Z,8.80
2023-08-26T02:42:57.387Z,8.75
2023-08-26T02:45:24.037Z,8.38
2023-08-26T02:47:50.831Z,7.93
2023-08-26T02:50:17.526Z,7.80
2023-08-26T02:52:44.144Z,7.50
2023-08-26T02:55:10.826Z,7.30
2023-08-26T02:57:37.615Z,7.63
2023-08-26T03:00:05.724Z,7.93
2023-08-26T03:02:32.480Z,8.07
2023-08-26T03:04:59.236Z,7.43
2023-08-26T03:07:25.916Z,7.75
2023-08-26T03:09:52.586Z,7.25
2023-08-26T03:12:19.215Z,7.18
2023-08-26T03:14:45.952Z,7.00
2023-08-26T03:17:12.592Z,7.10
2023-08-26T03:19:39.189Z,7.80
2023-08-26T03:22:05.831Z,7.32
2023-08-26T03:24:37.016Z,7.70
2023-08-26T03:27:03.643Z,7.65
2023-08-26T03:29:30.833Z,8.00
2023-08-26T03:31:57.421Z,8.52
2023-08-26T03:34:24.064Z,7.10
2023-08-26T03:36:50.734Z,8.00
2023-08-26T03:39:17.448Z,7.40
2023-08-26T03:41:44.135Z,8.55
2023-08-26T03:44:10.824Z,7.65
2023-08-26T03:46:37.449Z,7.40
2023-08-26T03:49:04.180Z,8.25
2023-08-26T03:51:31.210Z,8.15
2023-08-26T03:53:57.816Z,7.80
2023-08-26T03:56:24.410Z,8.38
2023-08-26T03:58:53.214Z,8.18
2023-08-26T04:01:19.842Z,8.45
2023-08-26T04:03:46.532Z,7.70
2023-08-26T04:06:17.185Z,8.65
2023-08-26T04:08:43.828Z,8.18
2023-08-26T04:11:10.454Z,7.70
2023-08-26T04:13:37.331Z,7.93
2023-08-26T04:16:04.832Z,8.15
2023-08-26T04:18:32.532Z,7.47
2023-08-26T04:20:59.169Z,7.80
2023-08-26T04:23:25.801Z,7.43
2023-08-26T04:25:55.452Z,7.30
2023-08-26T04:28:22.164Z,7.30
2023-08-26T04:30:48.902Z,7.60
2023-08-26T04:33:15.624Z,8.40
2023-08-26T04:35:42.316Z,7.50
2023-08-26T04:38:08.918Z,7.57
2023-08-26T04:40:35.595Z,8.35
2023-08-26T04:43:04.947Z,7.80
2023-08-26T04:45:31.889Z,7.68
2023-08-26T04:47:59.064Z,6.97
2023-08-26T04:50:26.902Z,7.18
2023-08-26T04:52:53.491Z,6.95
2023-08-26T04:55:20.268Z,7.28
2023-08-26T04:57:46.940Z,6.90
2023-08-26T05:00:14.651Z,6.55
2023-08-26T05:02:41.442Z,7.35
2023-08-26T05:05:08.402Z,6.72
2023-08-26T05:07:35.123Z,6.05
2023-08-26T05:10:04.601Z,5.85
2023-08-26T05:12:32.016Z,6.00
2023-08-26T05:14:58.575Z,5.70
2023-08-26T05:17:25.318Z,6.47
2023-08-26T05:19:52.674Z,5.50
2023-08-26T05:22:19.357Z,5.82
2023-08-26T05:24:46.106Z,5.85
2023-08-26T05:27:12.856Z,5.45
2023-08-26T05:29:39.507Z,5.78
2023-08-26T05:32:06.284Z,5.20
2023-08-26T05:34:33.169Z,5.32
2023-08-26T05:36:59.946Z,5.45
2023-08-26T05:39:26.546Z,5.35
2023-08-26T05:41:53.219Z,5.40
2023-08-26T05:44:19.814Z,4.90
2023-08-26T05:46:46.401Z,5.75
2023-08-26T05:49:12.997Z,5.72
2023-08-26T05:51:39.689Z,5.97
2023-08-26T05:54:07.125Z,6.07
2023-08-26T05:56:33.931Z,5.78
2023-08-26T05:59:00.550Z,6.05
2023-08-26T06:01:27.222Z,6.40
2023-08-26T06:03:53.951Z,5.85
2023-08-26T06:06:20.718Z,5.60
2023-08-26T06:08:47.353Z,6.18
2023-08-26T06:11:13.981Z,5.88
2023-08-26T06:13:40.618Z,6.28
2023-08-26T06:16:07.252Z,6.68
2023-08-26T06:18:33.910Z,6.47
2023-08-26T06:21:00.545Z,6.82
2023-08-26T06:23:27.253Z,6.65
2023-08-26T06:25:55.130Z,6.55
2023-08-26T06:28:22.271Z,5.85
2023-08-26T06:30:48.969Z,6.47
2023-08-26T06:33:15.890Z,6.20
2023-08-26T06:35:48.725Z,6.13
2023-08-26T06:38:16.248Z,5.25
2023-08-26T06:40:43.045Z,5.70
2023-08-26T06:43:09.973Z,5.03
2023-08-26T06:45:36.763Z,5.30
2023-08-26T06:48:03.582Z,5.82
2023-08-26T06:50:30.354Z,5.63
2023-08-26T06:52:56.929Z,6.07
2023-08-26T06:55:23.830Z,5.43
2023-08-26T06:57:50.508Z,5.55
2023-08-26T07:00:17.369Z,4.90
2023-08-26T07:02:44.020Z,5.32
2023-08-26T07:05:10.683Z,5.40
2023-08-26T07:07:37.697Z,5.57
2023-08-26T07:10:06.229Z,5.68
2023-08-26T07:12:33.075Z,5.28
2023-08-26T07:14:59.831Z,5.22
2023-08-26T07:17:26.485Z,5.28
2023-08-26T07:19:53.094Z,5.30
2023-08-26T07:22:27.191Z,6.40
2023-08-26T07:24:56.539Z,5.00
2023-08-26T07:27:24.464Z,5.40
2023-08-26T07:29:51.266Z,5.45
2023-08-26T07:32:17.937Z,5.10
2023-08-26T07:34:44.547Z,5.65
2023-08-26T07:37:11.233Z,4.85
2023-08-26T07:39:37.891Z,5.18
2023-08-26T07:42:05.216Z,4.90
2023-08-26T07:44:31.859Z,4.68
2023-08-26T07:46:58.749Z,5.15
2023-08-26T07:49:25.442Z,4.60
2023-08-26T07:51:52.069Z,5.20
2023-08-26T07:54:18.831Z,4.47
2023-08-26T07:56:45.456Z,4.50
2023-08-26T07:59:12.085Z,5.70
2023-08-26T08:01:38.688Z,4.32
2023-08-26T08:04:05.564Z,5.13
2023-08-26T08:06:32.310Z,4.57
2023-08-26T08:08:59.045Z,4.20
2023-08-26T08:11:25.705Z,4.68
2023-08-26T08:13:52.575Z,4.03
2023-08-26T08:16:19.295Z,4.18
2023-08-26T08:18:45.938Z,4.03
2023-08-26T08:21:12.636Z,3.85
2023-08-26T08:23:39.562Z,3.92
2023-08-26T08:26:06.245Z,4.88
2023-08-26T08:28:32.882Z,4.78
2023-08-26T08:31:00.048Z,4.28
2023-08-26T08:33:26.867Z,4.88
2023-08-26T08:35:53.494Z,4.47
2023-08-26T08:38:20.148Z,3.95
2023-08-26T08:40:46.838Z,4.25
2023-08-26T08:43:15.066Z,4.55
2023-08-26T08:45:43.439Z,4.55
2023-08-26T08:48:11.571Z,4.30
2023-08-26T08:50:39.017Z,4.00
2023-08-26T08:53:07.513Z,4.13
2023-08-26T08:55:34.231Z,4.22
2023-08-26T08:58:02.640Z,4.40
2023-08-26T09:00:30.766Z,4.47
2023-08-26T09:02:59.599Z,3.45
2023-08-26T09:05:27.213Z,3.47
2023-08-26T09:07:55.704Z,4.35
2023-08-26T09:10:23.768Z,3.85
2023-08-26T09:12:50.692Z,4.78
2023-08-26T09:15:17.593Z,4.00
2023-08-26T09:17:47.686Z,4.20
2023-08-26T09:20:14.567Z,4.70
2023-08-26T09:22:41.822Z,4.38
2023-08-26T09:25:08.834Z,4.43
2023-08-26T09:27:42.379Z,4.30
2023-08-26T09:30:09.949Z,4.40
2023-08-26T09:32:44.558Z,4.68
2023-08-26T09:35:19.316Z,4.07
2023-08-26T09:38:03.718Z,4.10
2023-08-26T09:40:31.024Z,4.43
2023-08-26T09:42:57.782Z,4.15
2023-08-26T09:45:25.263Z,4.68
2023-08-26T09:47:52.784Z,4.20
2023-08-26T09:50:32.444Z,4.43
2023-08-26T09:52:59.493Z,4.20
2023-08-26T09:55:26.927Z,4.20
2023-08-26T09:57:54.404Z,4.68
2023-08-26T10:00:21.742Z,4.32
2023-08-26T10:02:50.740Z,4.15
2023-08-26T10:05:21.989Z,4.18
2023-08-26T10:07:51.037Z,4.60
2023-08-26T10:10:32.773Z,4.60
2023-08-26T10:13:05.748Z,4.13
2023-08-26T10:15:35.007Z,4.10
2023-08-26T10:18:17.297Z,4.47
2023-08-26T10:20:45.559Z,4.43
2023-08-26T10:23:13.685Z,4.03
2023-08-26T10:25:41.126Z,3.95
2023-08-26T10:28:08.288Z,4.22
2023-08-26T10:30:35.130Z,3.78
2023-08-26T10:33:03.298Z,3.50
2023-08-26T10:35:30.105Z,3.83
2023-08-26T10:38:16.932Z,3.38
2023-08-26T10:40:43.627Z,4.45
2023-08-26T10:43:13.352Z,4.03
2023-08-26T10:45:48.301Z,4.10
2023-08-26T10:48:15.137Z,4.05
2023-08-26T10:50:45.411Z,4.20
2023-08-26T10:53:22.861Z,4.20
2023-08-26T10:55:53.297Z,4.10
2023-08-26T10:58:21.907Z,3.78
2023-08-26T11:00:50.889Z,4.05
2023-08-26T11:03:22.253Z,4.07
2023-08-26T11:06:02.717Z,4.05
2023-08-26T11:08:29.649Z,4.20
2023-08-26T11:10:56.307Z,3.50
2023-08-26T11:13:23.914Z,4.05
2023-08-26T11:15:52.398Z,3.63
2023-08-26T11:18:21.964Z,3.72
2023-08-26T11:20:50.123Z,3.83
2023-08-26T11:23:16.885Z,4.15
2023-08-26T11:25:43.656Z,3.78
2023-08-26T11:28:15.350Z,4.03
2023-08-26T11:30:44.192Z,3.90
2023-08-26T11:33:18.779Z,3.88
2023-08-26T11:35:58.786Z,3.88
2023-08-26T11:38:36.875Z,4.15
2023-08-26T11:41:07.688Z,4.65
2023-08-26T11:43:37.802Z,4.85
2023-08-26T11:46:07.951Z,4.00
2023-08-26T11:48:38.300Z,4.20
2023-08-26T11:51:05.679Z,4.22
2023-08-26T11:53:32.514Z,4.80
2023-08-26T11:55:59.329Z,4.00
2023-08-26T11:58:29.231Z,4.13
2023-08-26T12:00:56.867Z,4.07
2023-08-26T12:03:23.580Z,3.88
2023-08-26T12:05:53.871Z,3.85
2023-08-26T12:08:22.593Z,3.72
2023-08-26T12:10:50.825Z,3.65
2023-08-26T12:13:17.983Z,3.33
2023-08-26T12:15:45.365Z,3.72
2023-08-26T12:18:12.759Z,3.20
2023-08-26T12:20:42.178Z,3.25
2023-08-26T12:23:09.127Z,3.90
2023-08-26T12:25:37.751Z,3.08
2023-08-26T12:28:25.134Z,3.65
2023-08-26T12:30:52.801Z,3.55
2023-08-26T12:33:26.296Z,3.45
2023-08-26T12:35:55.893Z,3.70
2023-08-26T12:38:24.232Z,3.40
2023-08-26T12:40:51.411Z,3.58
2023-08-26T12:43:21.339Z,4.00
2023-08-26T12:45:50.457Z,3.55
2023-08-26T12:48:27.973Z,3.08
2023-08-26T12:51:04.828Z,3.50
2023-08-26T12:53:31.509Z,3.38
2023-08-26T12:55:59.394Z,3.30
2023-08-26T12:58:26.673Z,3.38
2023-08-26T13:00:53.454Z,2.33
2023-08-26T13:03:20.374Z,2.85
2023-08-26T13:05:47.251Z,2.80
2023-08-26T13:08:15.278Z,3.22
2023-08-26T13:10:42.039Z,2.58
2023-08-26T13:13:08.692Z,2.63
2023-08-26T13:15:39.395Z,3.20
2023-08-26T13:18:06.251Z,3.88
2023-08-26T13:20:32.925Z,3.20
2023-08-26T13:22:59.646Z,3.40
2023-08-26T13:25:26.312Z,3.40
2023-08-26T13:27:52.966Z,3.03
2023-08-26T13:30:19.617Z,3.00
2023-08-26T13:32:46.318Z,3.40
2023-08-26T13:35:14.020Z,3.63
2023-08-26T13:37:42.059Z,3.08
2023-08-26T13:40:09.196Z,3.63
2023-08-26T13:42:35.844Z,3.58
2023-08-26T13:45:02.488Z,3.40
2023-08-26T13:47:29.212Z,3.13
2023-08-26T13:49:55.911Z,3.03
2023-08-26T13:52:22.583Z,3.63
2023-08-26T13:54:49.234Z,3.40
2023-08-26T13:57:17.410Z,3.38
2023-08-26T13:59:44.088Z,3.70
2023-08-26T14:02:10.770Z,4.32
2023-08-26T14:04:37.677Z,3.30
2023-08-26T14:07:04.587Z,4.20
2023-08-26T14:09:31.230Z,3.67
2023-08-26T14:11:59.799Z,3.78
2023-08-26T14:14:26.441Z,3.50
2023-08-26T14:16:53.195Z,3.55
2023-08-26T14:19:19.866Z,3.70
2023-08-26T14:21:46.511Z,3.60
2023-08-26T14:24:13.153Z,3.78
2023-08-26T14:26:40.264Z,3.53
2023-08-26T14:29:07.189Z,3.80
2023-08-26T14:31:33.841Z,3.20
2023-08-26T14:34:00.568Z,3.85
2023-08-26T14:36:27.228Z,3.42
2023-08-26T14:38:55.062Z,3.85
2023-08-26T14:41:21.709Z,4.03
2023-08-26T14:43:49.811Z,4.03
2023-08-26T14:46:16.511Z,4.13
2023-08-26T14:48:43.355Z,4.28
2023-08-26T14:51:10.035Z,3.70
2023-08-26T14:53:37.875Z,3.30
2023-08-26T14:56:04.735Z,3.97
2023-08-26T14:58:31.493Z,3.90
2023-08-26T15:00:58.245Z,3.70
2023-08-26T15:03:25.472Z,4.57
2023-08-26T15:05:59.347Z,4.30
2023-08-26T15:08:26.298Z,4.20
2023-08-26T15:10:53.226Z,4.05
2023-08-26T15:13:22.135Z,4.38
2023-08-26T15:15:49.560Z,4.10
2023-08-26T15:18:19.193Z,3.97
2023-08-26T15:20:46.984Z,3.88
2023-08-26T15:23:15.637Z,4.10
2023-08-26T15:25:44.769Z,3.80
2023-08-26T15:28:11.769Z,4.07
2023-08-26T15:30:38.524Z,4.20
2023-08-26T15:33:05.588Z,4.20
2023-08-26T15:35:32.622Z,4.15
2023-08-26T15:37:59.727Z,4.00
2023-08-26T15:40:26.559Z,4.80
2023-08-26T15:42:56.036Z,4.53
2023-08-26T15:45:23.054Z,4.40
2023-08-26T15:47:51.319Z,4.20
2023-08-26T15:50:18.205Z,4.47
2023-08-26T15:52:44.921Z,5.07
2023-08-26T15:55:11.694Z,4.30
2023-08-26T15:57:38.281Z,4.53
2023-08-26T16:00:05.396Z,4.70
2023-08-26T16:02:32.134Z,4.68
2023-08-26T16:04:58.896Z,5.07
2023-08-26T16:07:25.587Z,4.53
2023-08-26T16:09:52.256Z,4.68
2023-08-26T16:12:18.941Z,4.82
2023-08-26T16:14:45.597Z,4.60
2023-08-26T16:17:12.455Z,4.93
2023-08-26T16:19:39.167Z,5.05
2023-08-26T16:22:05.858Z,4.88
2023-08-26T16:24:32.506Z,4.57
2023-08-26T16:26:59.151Z,5.45
2023-08-26T16:29:25.820Z,4.60
2023-08-26T16:31:52.499Z,5.50
2023-08-26T16:34:19.627Z,4.93
2023-08-26T16:36:46.384Z,5.43
2023-08-26T16:39:14.216Z,6.20
2023-08-26T16:41:41.006Z,5.15
2023-08-26T16:44:07.658Z,5.72
2023-08-26T16:46:34.346Z,5.45
2023-08-26T16:49:01.100Z,5.05
2023-08-26T16:51:27.751Z,5.50
2023-08-26T16:53:54.337Z,5.15
2023-08-26T16:56:20.979Z,5.82
2023-08-26T16:58:47.862Z,6.00
2023-08-26T17:01:14.521Z,5.22
2023-08-26T17:03:41.247Z,5.38
2023-08-26T17:06:09.304Z,5.78
2023-08-26T17:08:36.662Z,6.05
2023-08-26T17:11:04.898Z,5.70
2023-08-26T17:13:31.839Z,5.65
2023-08-26T17:15:58.886Z,5.22
2023-08-26T17:18:25.589Z,4.78
2023-08-26T17:20:52.284Z,5.63
2023-08-26T17:23:18.945Z,6.20
2023-08-26T17:25:45.659Z,6.15
2023-08-26T17:28:12.381Z,5.95
2023-08-26T17:30:39.300Z,6.00
2023-08-26T17:33:06.455Z,5.80
2023-08-26T17:35:37.422Z,6.72
2023-08-26T17:38:10.597Z,5.15
2023-08-26T17:40:48.109Z,5.35
2023-08-26T17:43:15.190Z,6.47
2023-08-26T17:45:45.796Z,5.90
2023-08-26T17:48:13.153Z,6.07
2023-08-26T17:50:54.036Z,6.47
2023-08-26T17:53:21.152Z,6.28
2023-08-26T17:55:47.953Z,6.30
2023-08-26T17:58:15.611Z,6.75
2023-08-26T18:00:43.616Z,5.55
2023-08-26T18:03:11.847Z,5.18
2023-08-26T18:05:39.367Z,5.97
2023-08-26T18:08:07.257Z,5.75
2023-08-26T18:10:35.185Z,4.85
2023-08-26T18:13:07.882Z,6.15
2023-08-26T18:15:36.107Z,5.60
2023-08-26T18:18:03.805Z,6.43
2023-08-26T18:20:30.698Z,5.53
2023-08-26T18:22:57.719Z,6.90
2023-08-26T18:25:24.697Z,6.10
2023-08-26T18:27:52.776Z,5.43
2023-08-26T18:30:19.789Z,5.85
2023-08-26T18:32:46.558Z,5.82
2023-08-26T18:35:13.314Z,5.45
2023-08-26T18:37:40.432Z,6.18
2023-08-26T18:40:07.589Z,6.72
2023-08-26T18:42:34.722Z,7.95
2023-08-26T18:45:01.926Z,5.78
2023-08-26T18:47:28.639Z,5.47
2023-08-26T18:49:55.340Z,4.70
2023-08-26T18:52:22.100Z,4.47
2023-08-26T18:54:48.706Z,4.80
2023-08-26T18:57:15.500Z,4.30
2023-08-26T18:59:42.293Z,5.13
2023-08-26T19:02:09.046Z,4.75
2023-08-26T19:04:36.752Z,5.07
2023-08-26T19:07:03.747Z,4.97
2023-08-26T19:09:31.473Z,4.53
2023-08-26T19:11:58.569Z,4.47
2023-08-26T19:14:25.173Z,4.30
2023-08-26T19:16:52.022Z,4.47
2023-08-26T19:19:18.775Z,4.07
2023-08-26T19:21:45.469Z,5.03
2023-08-26T19:24:12.207Z,4.90
2023-08-26T19:26:38.990Z,4.38
2023-08-26T19:29:05.661Z,4.97
2023-08-26T19:31:32.371Z,4.18
2023-08-26T19:33:59.007Z,4.10
2023-08-26T19:36:26.910Z,4.43
2023-08-26T19:38:53.653Z,4.22
2023-08-26T19:41:20.465Z,3.45
2023-08-26T19:43:47.444Z,4.07
2023-08-26T19:46:14.232Z,4.85
2023-08-26T19:48:54.726Z,4.57
2023-08-26T19:51:23.028Z,5.35
2023-08-26T19:53:49.739Z,4.80
2023-08-26T19:56:16.323Z,6.57
2023-08-26T19:58:43.021Z,6.25
2023-08-26T20:01:09.675Z,6.75
2023-08-26T20:03:36.516Z,6.47
2023-08-26T20:06:03.384Z,5.60
2023-08-26T20:08:29.994Z,5.55
2023-08-26T20:10:56.717Z,7.05
2023-08-26T20:13:23.510Z,4.63
2023-08-26T20:15:50.164Z,5.30
2023-08-26T20:18:16.791Z,5.60
2023-08-26T20:20:43.417Z,4.15
2023-08-26T20:23:10.103Z,4.65
2023-08-26T20:25:47.226Z,4.68
2023-08-26T20:28:15.015Z,4.70
2023-08-26T20:30:41.708Z,5.10
2023-08-26T20:33:08.429Z,4.95
2023-08-26T20:35:35.175Z,6.13
2023-08-26T20:38:01.811Z,5.60
2023-08-26T20:40:28.805Z,6.13
2023-08-26T20:42:55.435Z,6.43
2023-08-26T20:45:22.140Z,6.63
2023-08-26T20:47:48.826Z,6.80
2023-08-26T20:50:15.496Z,6.43
2023-08-26T20:52:42.246Z,6.65
2023-08-26T20:55:09.207Z,6.75
2023-08-26T20:57:35.925Z,7.72
2023-08-26T21:00:02.795Z,6.25
2023-08-26T21:02:29.615Z,6.93
2023-08-26T21:04:56.423Z,6.40
2023-08-26T21:07:23.275Z,6.85
2023-08-26T21:09:49.983Z,6.20
2023-08-26T21:12:16.730Z,7.38
2023-08-26T21:14:43.406Z,6.68
2023-08-26T21:17:10.052Z,7.57
2023-08-26T21:19:36.705Z,7.05
2023-08-26T21:22:03.426Z,7.60
2023-08-26T21:24:30.104Z,6.95
2023-08-26T21:26:56.794Z,6.75
2023-08-26T21:29:23.974Z,6.55
2023-08-26T21:31:50.863Z,6.78
2023-08-26T21:34:18.175Z,6.93
2023-08-26T21:36:44.995Z,6.05
2023-08-26T21:39:11.642Z,7.00
2023-08-26T21:41:38.336Z,6.90
2023-08-26T21:44:05.355Z,6.88
2023-08-26T21:46:32.514Z,6.50
2023-08-26T21:49:02.431Z,7.00
2023-08-26T21:51:29.089Z,5.30
2023-08-26T21:53:56.442Z,5.22
2023-08-26T21:56:23.345Z,5.38
2023-08-26T21:58:50.244Z,5.03
2023-08-26T22:01:16.885Z,5.53
2023-08-26T22:03:43.519Z,4.75
2023-08-26T22:06:10.195Z,4.75
2023-08-26T22:08:37.277Z,5.13
2023-08-26T22:11:07.925Z,5.10
2023-08-26T22:13:34.847Z,7.13
2023-08-26T22:16:01.540Z,6.90
2023-08-26T22:18:28.122Z,7.10
2023-08-26T22:20:55.167Z,6.57
2023-08-26T22:23:21.866Z,7.57
2023-08-26T22:25:48.566Z,7.15
2023-08-26T22:28:15.777Z,7.38
2023-08-26T22:30:42.907Z,7.13
2023-08-26T22:33:10.111Z,7.10
2023-08-26T22:35:37.028Z,7.18
2023-08-26T22:38:03.811Z,6.10
2023-08-26T22:40:30.452Z,7.40
2023-08-26T22:42:57.576Z,7.07
2023-08-26T22:45:24.661Z,7.45
2023-08-26T22:47:51.399Z,6.95
2023-08-26T22:50:18.210Z,6.93
2023-08-26T22:52:44.861Z,7.05
2023-08-26T22:55:11.587Z,6.97
2023-08-26T22:57:38.269Z,7.03
2023-08-26T23:00:08.071Z,7.40
2023-08-26T23:02:34.917Z,6.63
2023-08-26T23:05:01.726Z,6.63
2023-08-26T23:07:29.373Z,5.97
2023-08-26T23:09:59.974Z,6.03
2023-08-26T23:12:27.180Z,7.70
2023-08-26T23:14:55.657Z,7.45
2023-08-26T23:17:25.835Z,6.70
2023-08-26T23:19:52.557Z,6.97
2023-08-26T23:22:20.081Z,6.68
2023-08-26T23:24:46.707Z,6.65
2023-08-26T23:27:13.732Z,6.90
2023-08-26T23:29:40.440Z,7.95
2023-08-26T23:32:07.626Z,7.28
2023-08-26T23:34:34.568Z,7.93
2023-08-26T23:37:01.182Z,7.50
2023-08-26T23:39:27.848Z,6.75
2023-08-26T23:41:54.544Z,6.78
2023-08-26T23:44:21.249Z,6.57
2023-08-26T23:46:47.878Z,7.75
2023-08-26T23:49:14.570Z,7.03
2023-08-26T23:51:41.206Z,6.50
2023-08-26T23:54:08.850Z,6.80
2023-08-26T23:56:35.538Z,7.25
2023-08-26T23:59:02.420Z,6.82
